Time;durP1;ratioP1;P1;durP2;ratioP2;P2;SDS_P1;SDS_P2;PMS_P1;PMS_P2;Temp;Humidity;BMP_temperature;BMP_pressure;BME280_temperature;BME280_humidity;BME280_pressure;Samples;Min_cycle;Max_cycle;Signal;HPM_P1;HPM_P2
2021/12/15 00:02:12;;;;;;;4.00;3.80;;;;;;;7.82;100.00;102537.19;4352044;32;20066;-75
2021/12/15 00:04:38;;;;;;;4.53;4.32;;;;;;;7.82;100.00;102513.66;4362625;32;20570;-76
2021/12/15 00:07:03;;;;;;;4.28;3.87;;;;;;;7.82;100.00;102526.72;4376721;32;20181;-78
2021/12/15 00:09:29;;;;;;;5.20;5.00;;;;;;;7.82;100.00;102513.66;4336151;32;20070;-77
2021/12/15 00:11:54;;;;;;;4.53;4.25;;;;;;;7.80;100.00;102518.94;4340096;32;20078;-76
2021/12/15 00:14:20;;;;;;;4.97;4.78;;;;;;;7.82;100.00;102516.28;4350298;32;20121;-76
2021/12/15 00:16:46;;;;;;;3.72;3.62;;;;;;;7.82;100.00;102514.56;4351553;32;20084;-77
2021/12/15 00:19:11;;;;;;;4.68;4.37;;;;;;;6.77;100.00;102338.06;4353542;32;20070;-77
2021/12/15 00:21:37;;;;;;;4.00;3.80;;;;;;;7.65;100.00;102485.97;4350336;32;20590;-77
2021/12/15 00:24:04;;;;;;;3.80;3.70;;;;;;;7.67;100.00;102499.03;4353370;32;20078;-77
2021/12/15 00:26:29;;;;;;;5.05;4.85;;;;;;;7.82;100.00;102517.16;4346039;32;21196;-77
2021/12/15 00:28:55;;;;;;;3.40;3.30;;;;;;;7.65;100.00;102490.34;4353101;32;20093;-77
2021/12/15 00:31:20;;;;;;;4.87;4.68;;;;;;;7.74;100.00;102512.03;4366711;32;20092;-77
2021/12/15 00:33:46;;;;;;;3.62;3.53;;;;;;;7.81;100.00;102517.19;4365933;32;20081;-78
2021/12/15 00:36:12;;;;;;;4.43;4.12;;;;;;;7.81;100.00;102519.78;4348279;32;20071;-77
2021/12/15 00:38:37;;;;;;;4.07;3.87;;;;;;;7.81;100.00;102523.25;4352153;32;20069;-76
2021/12/15 00:41:03;;;;;;;3.50;3.40;;;;;;;7.73;100.00;102506.81;4363165;32;20108;-77
2021/12/15 00:43:28;;;;;;;5.12;4.93;;;;;;;7.39;100.00;102454.91;4360195;32;20664;-77
2021/12/15 00:45:54;;;;;;;4.20;4.00;;;;;;;7.24;100.00;102428.97;4356231;32;20094;-77
2021/12/15 00:48:19;;;;;;;5.28;5.03;;;;;;;7.43;100.00;102460.97;4360540;32;20096;-76
2021/12/15 00:50:45;;;;;;;3.47;3.37;;;;;;;7.81;100.00;102525.88;4365007;32;20416;-77
2021/12/15 00:53:10;;;;;;;3.65;3.55;;;;;;;7.50;100.00;102471.34;4354073;32;20087;-77
2021/12/15 00:55:36;;;;;;;3.90;3.70;;;;;;;7.63;100.00;102506.03;4364400;32;20077;-77
2021/12/15 00:58:02;;;;;;;3.87;3.75;;;;;;;7.43;100.00;102466.22;4376279;32;20143;-77
2021/12/15 01:00:33;;;;;;;5.20;5.00;;;;;;;7.33;100.00;102445.41;4368705;32;20135;-77
2021/12/15 01:02:59;;;;;;;3.60;3.50;;;;;;;7.79;100.00;102530.25;4367140;32;20073;-77
2021/12/15 01:05:29;;;;;;;5.40;5.20;;;;;;;7.35;100.00;102448.84;4359700;32;20110;-77
2021/12/15 01:07:55;;;;;;;3.90;3.72;;;;;;;7.74;100.00;102511.16;4379510;32;20089;-75
2021/12/15 01:10:26;;;;;;;5.75;5.45;;;;;;;7.81;100.00;102525.03;4344067;32;20950;-77
2021/12/15 01:21:03;;;;;;;4.10;3.90;;;;;;;7.72;100.00;102510.31;4380411;32;20169;-77
2021/12/15 01:23:30;;;;;;;5.07;4.87;;;;;;;7.85;100.00;102539.78;4376588;32;20070;-77
2021/12/15 01:26:09;;;;;;;4.05;3.85;;;;;;;7.79;100.00;102522.41;4370890;32;20074;-77
2021/12/15 01:28:34;;;;;;;4.00;3.80;;;;;;;7.83;100.00;102529.34;4365760;32;20070;-77
2021/12/15 01:31:01;;;;;;;3.60;3.50;;;;;;;7.87;100.00;102524.94;4350476;32;20066;-77
2021/12/15 01:33:26;;;;;;;3.50;3.40;;;;;;;7.85;100.00;102531.94;4371385;32;20149;-77
2021/12/15 01:35:52;;;;;;;3.45;3.35;;;;;;;7.71;100.00;102524.25;4364360;32;20109;-76
2021/12/15 01:38:19;;;;;;;4.60;4.40;;;;;;;7.42;100.00;102457.50;4360789;32;20529;-77
2021/12/15 01:40:45;;;;;;;3.90;3.70;;;;;;;7.89;100.00;102539.72;4361547;32;20501;-76
2021/12/15 01:53:17;;;;;;;4.55;4.35;;;;;;;7.98;100.00;102544.00;4397608;32;20068;-76
2021/12/15 01:55:42;;;;;;;3.60;3.50;;;;;;;7.69;100.00;102492.91;4363462;32;20066;-75
2021/12/15 01:58:08;;;;;;;4.00;3.80;;;;;;;8.04;100.00;102537.81;4374064;32;20088;-78
2021/12/15 02:00:44;;;;;;;4.40;4.20;;;;;;;8.05;100.00;102535.19;4370018;32;20158;-76
2021/12/15 02:03:10;;;;;;;4.00;3.80;;;;;;;7.87;100.00;102512.75;4365011;32;20086;-76
2021/12/15 02:05:35;;;;;;;3.85;3.75;;;;;;;8.05;100.00;102535.19;4351459;32;20077;-77
2021/12/15 02:08:01;;;;;;;3.45;3.35;;;;;;;7.96;100.00;102519.62;4365739;32;20943;-77
2021/12/15 02:10:29;;;;;;;5.00;4.80;;;;;;;7.76;100.00;102491.09;4363385;32;20065;-76
2021/12/15 02:12:58;;;;;;;3.70;3.60;;;;;;;8.08;100.00;102534.28;4365027;32;20065;-77
2021/12/15 02:15:46;;;;;;;4.65;4.45;;;;;;;8.09;100.00;102536.03;4348161;32;20144;-76
2021/12/15 02:18:13;;;;;;;3.70;3.60;;;;;;;7.93;100.00;102503.97;4366613;32;20084;-76
2021/12/15 02:20:44;;;;;;;3.60;3.50;;;;;;;8.13;100.00;102537.72;4360391;32;20179;-76
2021/12/15 02:23:11;;;;;;;4.15;3.95;;;;;;;8.11;100.00;102537.72;4351445;32;20179;-76
2021/12/15 02:25:37;;;;;;;3.70;3.60;;;;;;;8.11;100.00;102540.34;4357591;32;20610;-77
2021/12/15 02:28:05;;;;;;;3.67;3.58;;;;;;;7.97;100.00;102513.50;4350468;32;20125;-77
2021/12/15 02:33:10;;;;;;;3.78;3.67;;;;;;;7.44;100.00;102418.28;4354207;32;20081;-76
2021/12/15 02:38:28;;;;;;;5.28;5.03;;;;;;;8.15;100.00;102541.16;4300209;32;20967;-77
2021/12/15 02:40:53;;;;;;;3.45;3.35;;;;;;;8.16;100.00;102543.78;4379048;32;20065;-77
2021/12/15 02:43:18;;;;;;;4.70;4.50;;;;;;;8.16;100.00;102546.38;4340309;32;20101;-76
2021/12/15 02:45:44;;;;;;;4.25;4.05;;;;;;;7.97;100.00;102510.88;4360065;32;20077;-77
2021/12/15 02:48:09;;;;;;;3.60;3.50;;;;;;;8.16;100.00;102541.16;4355584;32;20085;-77
2021/12/15 02:50:36;;;;;;;4.75;4.55;;;;;;;8.16;99.79;102537.69;4365830;32;20194;-78
2021/12/15 02:53:02;;;;;;;4.32;4.12;;;;;;;8.16;100.00;102535.94;4361502;32;20104;-77
2021/12/15 02:55:27;;;;;;;5.15;4.95;;;;;;;7.24;100.00;102390.66;4352903;32;20200;-77
2021/12/15 02:57:53;;;;;;;3.70;3.60;;;;;;;8.15;100.00;102544.63;4374598;32;20105;-77
2021/12/15 03:00:25;;;;;;;4.97;4.78;;;;;;;8.17;100.00;102540.25;4365910;32;20057;-76
2021/12/15 03:05:48;;;;;;;3.70;3.60;;;;;;;8.15;100.00;102546.41;4374137;32;20064;-76
2021/12/15 03:08:24;;;;;;;4.03;3.83;;;;;;;6.79;100.00;102323.28;4360742;32;20070;-77
2021/12/15 03:16:20;;;;;;;4.82;4.62;;;;;;;8.11;100.00;102542.94;4373027;32;20068;-77
2021/12/15 03:18:46;;;;;;;3.92;3.67;;;;;;;8.09;100.00;102542.09;4354736;32;20085;-75
2021/12/15 03:21:14;;;;;;;3.60;3.50;;;;;;;8.10;100.00;102540.38;4376234;32;20092;-76
2021/12/15 03:23:50;;;;;;;3.60;3.50;;;;;;;8.04;100.00;102550.88;4370534;32;20138;-76
2021/12/15 03:26:20;;;;;;;3.97;3.83;;;;;;;7.48;100.00;102451.38;4373371;32;20113;-77
2021/12/15 03:35:06;;;;;;;4.03;3.83;;;;;;;7.62;100.00;102493.88;4375935;32;20083;-77
2021/12/15 03:37:21;;;;;;;;;;;;;;;7.90;100.00;102551.94;4377374;32;20088;-77
2021/12/15 03:39:47;;;;;;;3.60;3.50;;;;;;;7.74;100.00;102519.00;4380671;32;19965;-77
2021/12/15 03:42:16;;;;;;;3.53;3.42;;;;;;;7.87;100.00;102561.53;4365477;32;20074;-78
2021/12/15 03:44:43;;;;;;;3.70;3.60;;;;;;;7.05;100.00;102423.06;4356326;32;20136;-78
2021/12/15 03:47:11;;;;;;;3.70;3.60;;;;;;;7.62;100.00;102509.53;4375529;32;20061;-77
2021/12/15 03:49:36;;;;;;;3.80;3.70;;;;;;;7.82;100.00;102543.31;4364911;32;20465;-78
2021/12/15 03:52:04;;;;;;;3.65;3.55;;;;;;;7.83;100.00;102552.88;4359771;32;20076;-77
2021/12/15 03:54:32;;;;;;;4.87;4.68;;;;;;;7.84;100.00;102551.09;4374283;32;20065;-77
2021/12/15 03:56:58;;;;;;;3.62;3.53;;;;;;;7.83;100.00;102550.25;4378356;32;20075;-77
2021/12/15 03:59:24;;;;;;;4.82;4.62;;;;;;;7.65;100.00;102516.47;4378950;32;20463;-77
2021/12/15 04:01:50;;;;;;;3.97;3.78;;;;;;;7.82;100.00;102559.00;4364400;32;20089;-77
2021/12/15 04:04:15;;;;;;;3.70;3.58;;;;;;;7.82;100.00;102553.75;4367710;32;20633;-76
2021/12/15 04:06:41;;;;;;;3.62;3.53;;;;;;;6.78;100.00;102409.41;4354672;32;20208;-77
2021/12/15 04:09:08;;;;;;;3.50;3.40;;;;;;;7.80;100.00;102555.53;4356541;32;20071;-77
2021/12/15 04:11:35;;;;;;;4.57;4.35;;;;;;;7.80;100.00;102560.75;4348934;32;20305;-76
2021/12/15 04:14:01;;;;;;;3.50;3.40;;;;;;;7.78;100.00;102562.53;4340425;32;20169;-76
2021/12/15 04:18:59;;;;;;;3.55;3.45;;;;;;;7.79;100.00;102566.84;4358761;32;20126;-76
2021/12/15 04:21:24;;;;;;;5.32;5.12;;;;;;;7.77;100.00;102563.38;4373337;32;20178;-77
2021/12/15 04:23:51;;;;;;;4.05;3.85;;;;;;;6.70;100.00;102401.62;4368108;32;20073;-77
2021/12/15 04:26:16;;;;;;;4.12;3.95;;;;;;;7.21;100.00;102476.84;4351425;32;20089;-77
2021/12/15 04:28:41;;;;;;;3.65;3.55;;;;;;;7.73;100.00;102561.69;4368717;32;20212;-77
2021/12/15 04:31:09;;;;;;;3.55;3.45;;;;;;;7.43;100.00;102510.63;4367060;32;20850;-76
2021/12/15 04:33:37;;;;;;;3.70;3.60;;;;;;;7.75;100.00;102570.38;4364709;32;20098;-77
2021/12/15 04:36:07;;;;;;;3.60;3.50;;;;;;;7.58;100.00;102542.69;4370999;32;20663;-76
2021/12/15 04:38:33;;;;;;;4.20;4.00;;;;;;;7.74;100.00;102566.06;4363671;32;20080;-77
2021/12/15 04:41:01;;;;;;;3.70;3.60;;;;;;;7.76;100.00;102564.28;4369256;32;20173;-77
2021/12/15 04:43:30;;;;;;;4.80;4.60;;;;;;;7.19;100.00;102474.25;4367420;32;20088;-76
2021/12/15 04:45:56;;;;;;;3.92;3.72;;;;;;;7.78;100.00;102570.38;4351273;32;20074;-77
2021/12/15 04:48:22;;;;;;;5.28;4.97;;;;;;;7.76;100.00;102561.66;4349296;32;20088;-77
2021/12/15 04:50:48;;;;;;;3.50;3.40;;;;;;;7.74;100.00;102568.66;4345250;32;20078;-77
2021/12/15 04:53:13;;;;;;;5.78;5.37;;;;;;;7.30;100.00;102508.13;4351734;32;20799;-76
2021/12/15 04:55:39;;;;;;;4.00;3.80;;;;;;;7.33;100.00;102512.44;4365117;32;20184;-76
2021/12/15 04:58:05;;;;;;;3.67;3.58;;;;;;;7.47;100.00;102541.91;4350396;32;20386;-77
2021/12/15 05:00:32;;;;;;;5.25;5.05;;;;;;;7.69;100.00;102581.75;4350975;32;20687;-77
2021/12/15 05:02:57;;;;;;;3.30;3.20;;;;;;;7.68;100.00;102576.56;4347437;32;20066;-77
2021/12/15 05:05:23;;;;;;;4.82;4.62;;;;;;;7.51;100.00;102542.75;4351845;32;20116;-77
2021/12/15 05:07:49;;;;;;;3.60;3.50;;;;;;;7.73;100.00;102569.53;4348678;32;20166;-77
2021/12/15 05:10:15;;;;;;;4.32;4.10;;;;;;;6.99;100.00;102460.53;4345215;32;20704;-76
2021/12/15 05:12:41;;;;;;;3.80;3.70;;;;;;;7.34;100.00;102514.19;4340377;32;20089;-77
2021/12/15 05:15:06;;;;;;;4.30;4.10;;;;;;;7.76;100.00;102574.75;4351070;32;20123;-77
2021/12/15 05:17:32;;;;;;;4.55;4.35;;;;;;;7.39;100.00;102531.53;4352878;32;20085;-77
2021/12/15 05:20:02;;;;;;;3.90;3.70;;;;;;;7.47;100.00;102541.03;4349489;32;20066;-77
2021/12/15 05:22:27;;;;;;;4.85;4.65;;;;;;;7.73;100.00;102573.00;4347201;32;20074;-76
2021/12/15 05:24:52;;;;;;;3.55;3.45;;;;;;;7.73;100.00;102574.75;4348843;32;20108;-77
2021/12/15 05:27:18;;;;;;;4.80;4.60;;;;;;;7.19;100.00;102487.31;4347741;32;20070;-77
2021/12/15 05:29:44;;;;;;;3.60;3.50;;;;;;;6.66;100.00;102420.81;4349282;32;20070;-76
2021/12/15 05:32:10;;;;;;;3.65;3.55;;;;;;;7.69;100.00;102580.91;4362072;32;20081;-76
2021/12/15 05:34:36;;;;;;;3.70;3.60;;;;;;;7.66;100.00;102584.41;4350798;32;20431;-79
2021/12/15 05:37:02;;;;;;;3.70;3.60;;;;;;;7.45;100.00;102551.50;4366436;32;20598;-76
2021/12/15 05:39:28;;;;;;;5.20;5.00;;;;;;;7.63;100.00;102587.03;4360961;32;20074;-76
2021/12/15 05:41:53;;;;;;;3.80;3.70;;;;;;;7.61;100.00;102583.56;4354039;32;20151;-76
2021/12/15 05:44:18;;;;;;;4.65;4.45;;;;;;;7.58;100.00;102589.72;4366752;32;20204;-76
2021/12/15 05:46:44;;;;;;;3.60;3.50;;;;;;;7.47;100.00;102570.62;4376157;32;20074;-77
2021/12/15 05:49:09;;;;;;;3.40;3.30;;;;;;;6.84;100.00;102460.69;4362494;32;20522;-76
2021/12/15 05:51:37;;;;;;;3.67;3.58;;;;;;;7.57;100.00;102581.88;4353243;32;20616;-77
2021/12/15 05:54:03;;;;;;;3.55;3.45;;;;;;;6.41;100.00;102387.97;4361435;32;20099;-76
2021/12/15 05:56:28;;;;;;;4.75;4.55;;;;;;;7.54;100.00;102601.06;4351178;32;20080;-76
2021/12/15 05:58:54;;;;;;;3.50;3.40;;;;;;;7.53;100.00;102588.88;4339266;32;20077;-76
2021/12/15 06:01:19;;;;;;;4.72;4.53;;;;;;;7.53;100.00;102591.47;4359670;32;20647;-76
2021/12/15 06:03:45;;;;;;;3.60;3.50;;;;;;;7.12;100.00;102530.03;4364605;32;20112;-76
2021/12/15 06:06:10;;;;;;;3.60;3.50;;;;;;;7.44;100.00;102594.19;4363466;32;20073;-77
2021/12/15 06:08:35;;;;;;;4.20;4.00;;;;;;;7.42;100.00;102598.56;4354232;32;20988;-77
2021/12/15 06:11:01;;;;;;;3.60;3.50;;;;;;;6.46;100.00;102454.00;4365116;32;20142;-77
2021/12/15 06:13:27;;;;;;;5.78;5.37;;;;;;;6.50;100.00;102445.28;4359953;32;20088;-77
2021/12/15 06:15:53;;;;;;;3.53;3.42;;;;;;;7.36;100.00;102575.13;4364855;32;20172;-76
2021/12/15 06:18:19;;;;;;;4.37;4.18;;;;;;;7.53;100.00;102608.91;4376200;32;20073;-76
2021/12/15 06:20:45;;;;;;;3.47;3.37;;;;;;;7.54;100.00;102613.28;4356453;32;20592;-76
2021/12/15 06:23:17;;;;;;;3.55;3.45;;;;;;;7.56;100.00;102612.38;4358575;32;20080;-76
2021/12/15 06:25:42;;;;;;;3.60;3.47;;;;;;;7.56;100.00;102609.75;4362679;32;20111;-77
2021/12/15 06:28:08;;;;;;;3.87;3.67;;;;;;;7.56;100.00;102609.75;4367974;32;20070;-76
2021/12/15 06:30:33;;;;;;;4.40;4.20;;;;;;;7.57;100.00;102606.25;4362956;32;20062;-76
2021/12/15 06:32:59;;;;;;;4.03;3.83;;;;;;;7.59;100.00;102606.25;4350497;32;20857;-76
2021/12/15 06:35:24;;;;;;;4.97;4.72;;;;;;;7.62;100.00;102607.94;4361728;32;20496;-77
2021/12/15 06:37:49;;;;;;;3.70;3.60;;;;;;;7.44;100.00;102580.25;4352874;32;20723;-75
2021/12/15 06:40:15;;;;;;;4.12;3.92;;;;;;;7.65;100.00;102621.00;4366354;32;20154;-75
2021/12/15 06:42:40;;;;;;;3.83;3.62;;;;;;;7.64;100.00;102619.25;4362296;32;20089;-76
2021/12/15 06:45:07;;;;;;;3.90;3.70;;;;;;;7.62;100.00;102621.03;4366510;32;21217;-76
2021/12/15 06:58:12;;;;;;;3.80;3.62;;;;;;;7.34;100.00;102555.97;4382855;32;20107;-76
2021/12/15 07:00:41;;;;;;;4.22;4.03;;;;;;;7.62;100.00;102613.19;4363297;32;20066;-77
2021/12/15 07:03:07;;;;;;;3.60;3.50;;;;;;;7.70;100.00;102629.69;4376000;32;20073;-76
2021/12/15 07:05:32;;;;;;;4.35;4.15;;;;;;;7.61;100.00;102612.31;4372008;32;20092;-76
2021/12/15 07:07:58;;;;;;;3.55;3.45;;;;;;;7.26;100.00;102555.19;4364011;32;20576;-76
2021/12/15 07:10:26;;;;;;;4.57;4.37;;;;;;;7.52;100.00;102610.66;4362242;32;20562;-76
2021/12/15 07:12:53;;;;;;;3.70;3.60;;;;;;;7.68;100.00;102641.91;4369261;32;20200;-77
2021/12/15 07:15:18;;;;;;;4.32;4.12;;;;;;;7.22;100.00;102558.66;4360693;32;20097;-76
2021/12/15 07:17:46;;;;;;;3.53;3.42;;;;;;;7.66;100.00;102639.28;4355756;32;20114;-76
2021/12/15 07:22:57;;;;;;;3.75;3.62;;;;;;;7.61;100.00;102627.13;4374361;32;20628;-77
2021/12/15 07:25:22;;;;;;;4.60;4.40;;;;;;;7.17;100.00;102556.97;4364585;32;20505;-76
2021/12/15 07:27:47;;;;;;;3.80;3.70;;;;;;;7.51;100.00;102624.59;4355687;32;20087;-76
2021/12/15 07:30:13;;;;;;;3.70;3.60;;;;;;;7.72;100.00;102647.06;4367559;32;20140;-76
2021/12/15 07:32:38;;;;;;;4.00;3.80;;;;;;;7.55;100.00;102660.25;4377293;32;20154;-76
2021/12/15 07:35:04;;;;;;;4.10;3.92;;;;;;;7.72;100.00;102656.66;4374847;32;20172;-76
2021/12/15 07:37:32;;;;;;;4.50;4.30;;;;;;;7.56;100.00;102635.03;4366490;32;20065;-76
2021/12/15 07:39:59;;;;;;;3.55;3.45;;;;;;;7.51;100.00;102631.56;4369525;32;20081;-74
2021/12/15 07:42:35;;;;;;;4.32;4.12;;;;;;;7.71;100.00;102666.22;4365211;32;20056;-75
2021/12/15 07:45:02;;;;;;;3.50;3.40;;;;;;;7.72;100.00;102664.50;4368388;32;20080;-76
2021/12/15 07:47:28;;;;;;;4.68;4.47;;;;;;;7.45;100.00;102626.41;4371899;32;20094;-75
2021/12/15 07:49:53;;;;;;;3.42;3.33;;;;;;;7.65;100.00;102665.44;4364229;32;20066;-75
2021/12/15 07:52:18;;;;;;;4.35;4.15;;;;;;;7.58;100.00;102641.97;4364151;32;20091;-76
2021/12/15 07:54:44;;;;;;;3.67;3.58;;;;;;;6.60;100.00;102470.41;4368611;32;20139;-76
2021/12/15 07:57:11;;;;;;;3.62;3.53;;;;;;;7.82;100.00;102662.66;4367521;32;20564;-76
2021/12/15 07:59:36;;;;;;;3.78;3.58;;;;;;;7.62;100.00;102628.84;4366079;32;20077;-75
2021/12/15 08:02:02;;;;;;;3.70;3.60;;;;;;;7.88;100.00;102663.50;4368673;32;20081;-76
2021/12/15 08:04:27;;;;;;;3.83;3.67;;;;;;;7.36;100.00;102564.66;4366793;32;20075;-78
2021/12/15 08:06:52;;;;;;;3.60;3.50;;;;;;;7.93;100.00;102637.28;4387953;32;20077;-81
2021/12/15 08:09:19;;;;;;;4.45;4.25;;;;;;;7.53;100.00;102565.34;4367805;32;20538;-78
2021/12/15 08:11:44;;;;;;;3.70;3.60;;;;;;;7.44;100.00;102552.41;4373582;32;20093;-78
2021/12/15 08:14:10;;;;;;;3.70;3.60;;;;;;;7.84;100.00;102651.31;4383491;32;20690;-78
2021/12/15 08:16:35;;;;;;;3.90;3.75;;;;;;;7.51;100.00;102587.16;4375003;32;20545;-77
2021/12/15 08:19:01;;;;;;;3.60;3.50;;;;;;;7.47;100.00;102583.69;4373821;32;20155;-79
2021/12/15 08:21:28;;;;;;;4.57;4.37;;;;;;;8.01;100.00;102703.44;4368622;32;20083;-80
2021/12/15 08:23:53;;;;;;;3.80;3.60;;;;;;;7.80;100.00;102647.00;4371216;32;20074;-78
2021/12/15 08:26:18;;;;;;;3.83;3.70;;;;;;;7.98;100.00;102674.72;4368328;32;20073;-77
2021/12/15 08:28:44;;;;;;;4.00;3.80;;;;;;;6.48;100.00;102420.94;4375526;32;20096;-80
2021/12/15 08:31:09;;;;;;;4.00;3.80;;;;;;;7.96;100.00;102666.87;4380281;32;20662;-78
2021/12/15 08:33:35;;;;;;;4.32;4.12;;;;;;;7.98;100.00;102682.56;4372250;32;20100;-78
2021/12/15 08:36:08;;;;;;;3.67;3.58;;;;;;;5.54;100.00;102345.91;4374695;32;20615;-77
2021/12/15 08:38:37;;;;;;;4.35;4.15;;;;;;;7.80;100.00;102654.84;4375152;32;20103;-76
2021/12/15 08:41:05;;;;;;;3.85;3.67;;;;;;;7.77;100.00;102657.47;4355899;32;20296;-77
2021/12/15 08:43:30;;;;;;;4.97;4.78;;;;;;;7.96;100.00;102687.81;4371921;32;20087;-78
2021/12/15 08:46:03;;;;;;;3.50;3.40;;;;;;;7.97;100.00;102689.53;4371094;32;20627;-79
2021/12/15 08:48:28;;;;;;;4.50;4.30;;;;;;;7.83;100.00;102683.56;4366260;32;20092;-78
2021/12/15 08:50:54;;;;;;;3.72;3.58;;;;;;;8.02;100.00;102693.84;4370169;32;20069;-79
2021/12/15 08:53:19;;;;;;;3.53;3.42;;;;;;;7.85;100.00;102675.72;4356826;32;20069;-76
2021/12/15 08:55:46;;;;;;;3.70;3.60;;;;;;;8.05;100.00;102693.84;4369970;32;20069;-79
2021/12/15 08:58:13;;;;;;;5.53;3.58;;;;;;;7.84;100.00;102653.94;4355929;32;20090;-79
2021/12/15 09:00:45;;;;;;;4.60;4.40;;;;;;;8.13;100.00;102705.09;4374777;32;20090;-78
2021/12/15 09:03:11;;;;;;;;;;;;;;;8.19;100.00;102689.31;4374904;32;20641;-80
2021/12/15 09:05:37;;;;;;;4.43;4.22;;;;;;;8.28;100.00;102690.97;4381757;32;19976;-80
2021/12/15 09:08:02;;;;;;;3.80;3.70;;;;;;;8.31;100.00;102711.87;4373102;32;20699;-78
2021/12/15 09:10:30;;;;;;;4.35;4.15;;;;;;;8.05;100.00;102652.84;4366830;32;20161;-78
2021/12/15 09:12:56;;;;;;;4.30;4.10;;;;;;;8.30;100.00;102668.28;4370225;32;20065;-81
2021/12/15 09:15:21;;;;;;;3.80;3.67;;;;;;;8.37;100.00;102667.34;4368339;32;20073;-76
2021/12/15 09:17:47;;;;;;;3.80;3.70;;;;;;;7.58;100.00;102528.75;4371316;32;20489;-80
2021/12/15 09:20:14;;;;;;;3.60;3.50;;;;;;;8.21;100.00;102616.94;4371595;32;20088;-78
2021/12/15 09:22:40;;;;;;;4.57;4.35;;;;;;;7.35;100.00;102480.19;4359523;32;20511;-79
2021/12/15 09:25:06;;;;;;;4.00;3.83;;;;;;;8.54;100.00;102665.44;4357059;32;20093;-79
2021/12/15 09:27:32;;;;;;;4.75;4.55;;;;;;;8.65;100.00;102675.75;4368662;32;20073;-80
2021/12/15 09:29:57;;;;;;;4.00;3.80;;;;;;;8.61;100.00;102674.06;4372876;32;20077;-79
2021/12/15 09:32:23;;;;;;;3.80;3.67;;;;;;;8.83;100.00;102706.06;4354538;32;20085;-79
2021/12/15 09:34:48;;;;;;;4.35;4.15;;;;;;;8.36;100.00;102626.37;4373590;32;20065;-79
2021/12/15 09:37:13;;;;;;;3.60;3.50;;;;;;;8.87;100.00;102704.28;4366545;32;20512;-79
2021/12/15 09:39:39;;;;;;;4.25;4.05;;;;;;;8.90;100.00;102710.38;4357038;32;20405;-78
2021/12/15 09:42:04;;;;;;;4.07;3.87;;;;;;;8.37;100.00;102621.09;4363829;32;20077;-79
2021/12/15 09:44:30;;;;;;;4.53;4.32;;;;;;;8.93;100.00;102707.69;4366471;32;20076;-79
2021/12/15 09:47:13;;;;;;;4.07;3.87;;;;;;;9.00;100.00;102711.13;4355360;32;20254;-80
2021/12/15 10:03:16;;;;;;;3.80;3.70;;;;;;;8.77;100.00;102703.53;4369896;32;20140;-78
2021/12/15 10:05:50;;;;;;;3.95;3.80;;;;;;;8.65;100.00;102691.47;4354751;32;20375;-79
2021/12/15 10:19:32;;;;;;;4.05;3.87;;;;;;;8.95;100.00;102719.00;4391577;32;20100;-79
2021/12/15 10:22:39;;;;;;;3.83;3.72;;;;;;;8.48;100.00;102638.44;4372714;32;20077;-79
2021/12/15 10:25:11;;;;;;;4.12;3.92;;;;;;;8.96;100.00;102727.72;4390051;32;20104;-79
2021/12/15 10:28:12;;;;;;;4.35;4.15;;;;;;;8.93;100.00;102715.53;4391973;32;20070;-79
2021/12/15 10:30:39;;;;;;;5.22;4.97;;;;;;;8.98;100.00;102705.03;4351846;32;20082;-79
2021/12/15 10:33:09;;;;;;;3.72;3.62;;;;;;;9.05;100.00;102713.66;4373250;32;20078;-80
2021/12/15 10:35:37;;;;;;;4.28;4.07;;;;;;;8.74;100.00;102664.28;4354267;32;20061;-79
2021/12/15 10:38:28;;;;;;;3.80;3.67;;;;;;;7.58;100.00;102464.28;4372139;32;20085;-79
2021/12/15 10:41:12;;;;;;;4.55;4.35;;;;;;;9.12;100.00;102707.44;4383843;32;20204;-79
2021/12/15 10:43:54;;;;;;;4.53;4.32;;;;;;;9.10;100.00;102728.44;4391794;32;20105;-79
2021/12/15 10:46:32;;;;;;;3.80;3.70;;;;;;;9.10;100.00;102711.81;4378678;32;20599;-81
2021/12/15 10:48:59;;;;;;;3.58;3.47;;;;;;;7.94;100.00;102516.16;4367152;32;20084;-79
2021/12/15 10:51:34;;;;;;;4.47;4.28;;;;;;;9.06;100.00;102715.38;4366770;32;20116;-79
2021/12/15 10:54:03;;;;;;;4.50;4.20;;;;;;;8.91;100.00;102678.03;4387489;32;20462;-79
2021/12/15 10:56:31;;;;;;;4.75;4.55;;;;;;;8.99;100.00;102691.03;4366191;32;20088;-80
2021/12/15 10:59:00;;;;;;;3.80;3.70;;;;;;;8.79;100.00;102645.03;4365363;32;20143;-80
2021/12/15 11:01:39;;;;;;;4.37;4.18;;;;;;;9.18;100.00;102709.97;4368768;32;20529;-79
2021/12/15 11:04:21;;;;;;;3.60;3.50;;;;;;;9.10;100.00;102711.81;4367028;32;20168;-79
2021/12/15 11:07:10;;;;;;;3.75;3.65;;;;;;;9.16;100.00;102727.47;4366697;32;20827;-79
2021/12/15 11:09:48;;;;;;;4.55;4.35;;;;;;;9.05;100.00;102708.44;4366466;32;20084;-79
2021/12/15 11:12:45;;;;;;;4.18;3.97;;;;;;;9.23;100.00;102720.41;4367528;32;20604;-79
2021/12/15 11:15:14;;;;;;;4.10;3.90;;;;;;;9.13;100.00;102691.72;4377927;32;20058;-79
2021/12/15 11:17:43;;;;;;;4.45;4.25;;;;;;;9.18;100.00;102697.75;4376588;32;20090;-79
2021/12/15 11:20:12;;;;;;;3.90;3.70;;;;;;;8.99;100.00;102684.03;4355773;32;20347;-80
2021/12/15 11:22:41;;;;;;;5.00;4.72;;;;;;;9.23;100.00;102715.16;4377976;32;20065;-79
2021/12/15 11:25:19;;;;;;;3.80;3.70;;;;;;;8.74;100.00;102636.37;4378215;32;20070;-80
2021/12/15 11:27:48;;;;;;;4.28;4.07;;;;;;;9.01;100.00;102686.63;4353868;32;20078;-79
2021/12/15 11:30:15;;;;;;;4.28;3.97;;;;;;;8.78;100.00;102632.84;4367571;32;21355;-79
2021/12/15 11:32:44;;;;;;;3.80;3.70;;;;;;;9.22;100.00;102721.28;4366754;32;20112;-78
2021/12/15 11:35:19;;;;;;;3.67;3.55;;;;;;;9.14;100.00;102682.09;4379836;32;20069;-79
2021/12/15 11:37:47;;;;;;;3.70;3.60;;;;;;;9.31;100.00;102708.06;4364407;32;20080;-78
2021/12/15 11:40:14;;;;;;;4.22;3.92;;;;;;;8.16;100.00;102515.00;4380642;32;20469;-78
2021/12/15 11:42:40;;;;;;;4.62;4.43;;;;;;;8.81;100.00;102615.34;4365162;32;20333;-79
2021/12/15 11:45:07;;;;;;;4.10;3.90;;;;;;;8.88;100.00;102612.63;4363560;32;20074;-79
2021/12/15 11:47:33;;;;;;;4.70;4.50;;;;;;;9.21;100.00;102677.66;4377198;32;20948;-77
2021/12/15 11:50:12;;;;;;;4.10;3.90;;;;;;;8.79;100.00;102597.03;4363095;32;20070;-80
2021/12/15 11:52:42;;;;;;;4.68;4.47;;;;;;;9.18;100.00;102674.19;4366519;32;20072;-80
2021/12/15 11:55:27;;;;;;;4.20;4.00;;;;;;;9.08;100.00;102666.47;4368654;32;20099;-79
2021/12/15 11:57:52;;;;;;;3.70;3.60;;;;;;;9.16;100.00;102696.91;4369347;32;20564;-80
2021/12/15 12:00:19;;;;;;;4.95;4.75;;;;;;;9.25;100.00;102700.28;4364914;32;20201;-80
2021/12/15 12:02:47;;;;;;;3.92;3.72;;;;;;;8.94;100.00;102645.69;4363556;32;20172;-78
2021/12/15 12:05:33;;;;;;;4.00;3.80;;;;;;;8.96;100.00;102642.19;4369554;32;20139;-79
2021/12/15 12:08:05;;;;;;;4.03;3.83;;;;;;;9.17;100.00;102692.53;4352021;32;21611;-79
2021/12/15 12:10:47;;;;;;;4.72;4.53;;;;;;;7.94;100.00;102467.34;4370028;32;20069;-79
2021/12/15 12:13:19;;;;;;;4.00;3.80;;;;;;;9.13;100.00;102673.38;4367811;32;20468;-78
2021/12/15 12:15:45;;;;;;;;;;;;;;;9.18;100.00;102697.75;4382855;32;20088;-81
2021/12/15 12:18:18;;;;;;;3.67;3.58;;;;;;;8.93;100.00;102636.13;4398033;32;19965;-79
2021/12/15 12:20:46;;;;;;;3.90;3.70;;;;;;;9.33;100.00;102688.78;4372168;32;20100;-78
2021/12/15 12:23:13;;;;;;;3.65;3.55;;;;;;;8.97;100.00;102614.25;4392371;32;20081;-82
2021/12/15 12:25:41;;;;;;;4.65;4.45;;;;;;;9.42;100.00;102702.66;4392796;32;20112;-82
2021/12/15 12:28:09;;;;;;;4.00;3.80;;;;;;;9.31;100.00;102661.75;4374686;32;20596;-78
2021/12/15 12:30:43;;;;;;;4.87;4.68;;;;;;;9.45;100.00;102695.59;4363943;32;20501;-79
2021/12/15 12:33:10;;;;;;;4.22;4.03;;;;;;;8.91;100.00;102624.81;4359987;32;20086;-78
2021/12/15 12:35:39;;;;;;;4.50;4.30;;;;;;;9.12;100.00;102634.09;4381902;32;20708;-80
2021/12/15 12:38:11;;;;;;;3.90;3.75;;;;;;;9.38;100.00;102692.22;4366662;32;20084;-79
2021/12/15 12:40:46;;;;;;;4.70;4.50;;;;;;;8.50;100.00;102537.25;4356630;32;20138;-78
2021/12/15 12:43:23;;;;;;;3.83;3.72;;;;;;;8.79;100.00;102592.66;4378834;32;20192;-79
2021/12/15 12:45:58;;;;;;;3.90;3.80;;;;;;;8.84;100.00;102587.38;4366752;32;20710;-79
2021/12/15 12:48:47;;;;;;;3.95;3.80;;;;;;;8.82;100.00;102593.50;4369861;32;20061;-80
2021/12/15 12:59:48;;;;;;;4.72;4.53;;;;;;;9.28;100.00;102647.81;4381466;32;20143;-79